OROVILLE DAM (ORO)

Elevation: 900' · FEATHER R basin · Operator: CA Dept of Water Resources/O & M

Provisional data, subject to change.
Query executed Friday at 4:58:20   clock

Select a sensor type for a plot of data.
Note: Reservoir Flows are daily averages.

Earlier

Date RES ELE    STORAGE    RES CHG    TOC STO    ABV TOC    OUTFLOW    INFLOW    EVAP    FNF    PPT INC    RAIN    PPTINC4   
 FEET   AF   AF   AF   AF   CFS   CFS   CFS   CFS   INCHES   INCHES   INCHES  
06/30/2016 860.95 2957945 -21339 3538000 -- 12772 2270 186 2563 0.00 30.68 0.00
07/01/2016 859.54 2938374 -19571 3538000 -599626 12676 2913 173 2420 e 0.00 30.68 0.00
07/02/2016 857.92 2916002 -22372 3538000 -621998 12764 1655 169 2061 e 0.00 30.68 0.00
07/03/2016 856.36 2894572 -21430 3538000 -643428 12732 2097 169 2060 e 0.00 30.68 0.00
07/04/2016 854.80 2873254 -21318 3538000 -664746 12816 2236 167 1701 e 0.00 30.68 0.00
07/05/2016 853.26 2852317 -20937 3538000 -685683 12825 2482 212 1701 e 0.00 30.68 0.00
07/06/2016 851.70 2831218 -21099 3538000 -706782 11446 1001 192 1404 e 0.00 30.68 0.00
07/07/2016 850.00 2808351 -22867 3538000 -729649 11449 227 103 1404 e 0.00 30.68 0.00
07/08/2016 848.46 2787748 -20603 3538000 -750252 11234 848 136 1105 e 0.00 30.68 0.00
07/09/2016 846.88 2766720 -21028 3538000 -771280 11404 904 102 998 e 0.00 30.68 0.00
07/10/2016 845.24 2745012 -21708 3538000 -792988 11433 590 102 998 e 0.00 30.68 0.00
07/11/2016 843.84 2726575 -18437 3538000 -- 11278 2229 247 998 e 0.00 30.68 0.00
07/12/2016 842.25 2705741 -20834 3538000 -832259 11351 1062 148 1052 e 0.00 30.68 0.00
07/13/2016 840.70 2685539 -20202 3538000 -852461 11342 1333 176 1052 e 0.00 30.68 0.00
07/14/2016 839.33 2667754 -17785 3538000 -870246 12545 3692 174 1050 e 0.00 30.68 0.00
07/15/2016 837.68 2646449 -21305 3538000 -891551 12627 2237 222 945 e 0.00 30.68 0.00
07/16/2016 836.01 2625008 -21441 3538000 -912992 12604 1990 197 945 e 0.00 30.68 0.00
07/17/2016 834.32 2603433 -21575 3538000 -934567 11263 517 196 1050 e 0.00 30.68 0.00
07/18/2016 832.73 2583247 -20186 3538000 -954753 11247 1100 94 915 0.00 30.68 0.00
07/19/2016 831.08 2562417 -20830 3538000 -975583 11013 637 128 945 e 0.00 30.68 0.00
07/20/2016 829.61 2543957 -18460 3538000 -994043 11182 2023 147 1050 e 0.00 30.68 0.00
07/21/2016 827.84 2521855 -22102 3538000 -- 11301 381 161 1050 e 0.00 30.68 0.00
07/22/2016 826.24 2501990 -19865 3538000 -1036010 11239 1404 179 858 e 0.00 30.68 0.00
07/23/2016 824.68 2482729 -19261 3538000 -1055271 11207 1685 190 962 0.00 30.68 0.00
07/24/2016 823.27 2465410 -17319 3538000 -1072590 11079 2475 189 982 0.00 30.68 0.00
07/25/2016 821.64 2445494 -19916 3538000 -1092506 11318 1416 139 -- 0.00 30.68 0.00
07/26/2016 820.08 2426540 -18954 3538000 -1111460 12095 2778 178 -- 0.00 30.68 0.00
07/27/2016 818.55 2408098 -18442 3538000 -1129902 11709 2585 193 -- 0.00 30.68 0.00
07/28/2016 817.09 2390554 -17544 3538000 -- 11465 2759 199 -- 0.00 -- 0.00
07/29/2016 -- -- -- -- -- -- -- -- -- -- -- --

Later | Latest

Warning! This data is preliminary and subject to revision.

Show ORO Map | Plot ORO Data | 1 Month ORO Data | Real-Time ORO Data | ORO Info